Estación Meteorológica Peña el Pijo (Robertgarden) [ 03/26/19 15:05:37 CET ]

Fecha Hora Presion(HPa) Temp (°C) Humedad % Rocio (°C) Viento ( m/s) Direccion Lluvia 1Hora(mm) Lluvia 24H(mm) LLuvia Total(mm)
2019-Jan-13 01:01:41 1014.800 -2.1 63 -8.2         161.09
2019-Jan-13 02:02:14 1014.400 -1.4 63 -7.6         161.09
2019-Jan-13 03:07:03 1014.500 -2.1 65 -7.8         161.09
2019-Jan-13 04:02:02 1014.200 -2.1 66 -7.6         161.09
2019-Jan-13 05:01:41 1013.700 -2.1 66 -7.6         161.09
2019-Jan-13 06:01:34 1013.500 -0.4 62 -6.8         161.09
2019-Jan-13 07:01:37 1013.500 -1.6 63 -7.7         161.09
2019-Jan-13 08:01:29 1013.800 -1.2 64 -7.2         161.09
2019-Jan-13 09:01:47 1014.300 -0.5 61 -7.1         161.09
2019-Jan-13 10:01:34 1014.300 4.3 54 -4.3         161.09
2019-Jan-13 11:01:42 1014.400 11.9 36 -2.8         161.09
2019-Jan-13 12:01:56 1013.900 14.7 27 -4.3         161.09
2019-Jan-13 13:01:42 1012.700 15.8 23 -5.5         161.09
2019-Jan-13 14:01:27 1012.100 18.1 20 -5.2         161.09
2019-Jan-13 15:01:21 1011.700 18.2 19 -6.0 3.1 NW     161.09
2019-Jan-13 16:01:49 1011.400 17.1 20 -6.0 1.3 NW     161.09
2019-Jan-13 17:01:54 1011.400 13.5 22 -7.9         161.09
2019-Jan-13 18:01:48 1011.900 10.7 27 -7.7         161.09
2019-Jan-13 19:02:04 1012.400 6.9 33 -8.4         161.09
2019-Jan-13 20:01:53 1012.900 5.5 38 -7.8         161.09
2019-Jan-13 21:01:42 1012.800 4.4 41 -7.8         161.09
2019-Jan-13 22:01:52 1012.600 4.2 44 -7.1         161.09
2019-Jan-13 23:01:52 1012.700 3.4 49 -6.3         161.09

Temperatura Máxima:18°    Temperatura Mínima:-2°
Presión Máxima:1014.800 Hpa    Presión Mínima:1011.400 Hpa


Volver